Meppen Air Base

ETWM · 下萨克森, 德国

罗盘
风向 的 风向 350° Meppen Air Base 6/24
风: 1 kt, 1 beaufort


1 kt
改变
0 1.000 2.000 3.000 4.000 5.000
未检测到零云
SPECI EHGG 011025Z AUTO 35001KT 4400 BR NCD 05/05 Q1028 BECMG 6000 NSW

METAR Meppen Air Base - ETWM

Meppen Air Base是,德国中的小机场。 该机场有一条跑道: 6/24. 该领域的国际民航组织标志是ETWM.

这份报告是针对2022年12月1日 11:25, 当地时间在Groningen Airport Eelde进行的。

机场观察

风向为350°,速度为1 kt。

可见度为4,4 km。

有未检测到零云。 没有观察到天花板。

当前天气为薄雾。 温度和风寒是5 °C。 露点为5 °C,相对湿度为100%。 海平面上的气压为1028 hPa (QNH)。

发展趋势

  • 变得

    可变方向的风很小或没有。 可见性变为6 km。 没有观察到明显的天气.

白天

今天,太阳从08:19升起,在16:19降落。 这适用于Meppen Air Base,世界夏令时可能有所不同。 当地时间与世界标准时间之间的时差为+1 小时。 当前,没有夏令时有效。

公司介绍

我们没有关于这个机场的公司信息。

体会

到Vliegles.nl去找飞行课程,跳伞和其他飞行体验。 浏览页面,了解Meppen Air Base附近所有可用的活动。 你也可以使用搜索功能来寻找你所在地附近的特定飞行课程、跳伞或其他飞行体验。

跑道

Id 标题 侧风 逆风 侧风 %
6/24 057°-237° 92 %

逆风成分最大的方向会被突出显示,并用于横风计算。 这并不一定意味着这个方向在使用。

乌云

- NCD 未检测到零云
- NSW 变得 没有观察到明显的天气

温度 & 天气

天气 薄雾
温度 5 °C
露点 5 °C
相对湿度 100%
Kp-index 3 (0-9)

白天

日出
08:24
中午
12:22
日落
16:20 (4:40)

小工具

你想在你的网站上有一个关于Meppen Air Base的当前航空天气(METAR)的小部件吗?

显示HTML代码

我们和第三方通过cookies跟踪您在我们网站上的互联网行为。如果你继续,我们认为你同意我们的饼干政策